sensor_id;sensor_type;location;lat;lon;timestamp;P1;durP1;ratioP1;P2;durP2;ratioP2
39772;SDS011;25451;51.960;6.250;2022-12-24T00:00:29;13.98;;;1.73;;
39772;SDS011;25451;51.960;6.250;2022-12-24T00:02:54;12.30;;;1.80;;
39772;SDS011;25451;51.960;6.250;2022-12-24T00:05:19;17.55;;;1.73;;
39772;SDS011;25451;51.960;6.250;2022-12-24T00:07:45;9.40;;;1.67;;
39772;SDS011;25451;51.960;6.250;2022-12-24T00:10:10;17.90;;;2.00;;
39772;SDS011;25451;51.960;6.250;2022-12-24T00:12:36;14.53;;;2.17;;
39772;SDS011;25451;51.960;6.250;2022-12-24T00:15:02;21.52;;;2.03;;
39772;SDS011;25451;51.960;6.250;2022-12-24T00:17:29;12.80;;;1.70;;
39772;SDS011;25451;51.960;6.250;2022-12-24T00:19:54;12.60;;;1.73;;
39772;SDS011;25451;51.960;6.250;2022-12-24T00:22:20;14.60;;;1.80;;
39772;SDS011;25451;51.960;6.250;2022-12-24T00:24:45;26.67;;;2.23;;
39772;SDS011;25451;51.960;6.250;2022-12-24T00:27:10;17.53;;;1.97;;
39772;SDS011;25451;51.960;6.250;2022-12-24T00:29:36;15.37;;;2.30;;
39772;SDS011;25451;51.960;6.250;2022-12-24T00:32:01;11.73;;;1.80;;
39772;SDS011;25451;51.960;6.250;2022-12-24T00:34:27;12.10;;;1.88;;
39772;SDS011;25451;51.960;6.250;2022-12-24T00:36:52;11.90;;;1.53;;
39772;SDS011;25451;51.960;6.250;2022-12-24T00:39:18;13.85;;;1.63;;
39772;SDS011;25451;51.960;6.250;2022-12-24T00:41:43;14.27;;;1.57;;
39772;SDS011;25451;51.960;6.250;2022-12-24T00:44:09;10.27;;;1.63;;
39772;SDS011;25451;51.960;6.250;2022-12-24T00:46:35;18.17;;;1.80;;
39772;SDS011;25451;51.960;6.250;2022-12-24T00:49:02;11.02;;;1.73;;
39772;SDS011;25451;51.960;6.250;2022-12-24T00:51:29;14.27;;;1.88;;
39772;SDS011;25451;51.960;6.250;2022-12-24T00:53:54;16.30;;;2.22;;
39772;SDS011;25451;51.960;6.250;2022-12-24T00:56:20;21.17;;;2.30;;
39772;SDS011;25451;51.960;6.250;2022-12-24T00:58:46;16.50;;;2.53;;
39772;SDS011;25451;51.960;6.250;2022-12-24T01:01:12;17.80;;;2.00;;
39772;SDS011;25451;51.960;6.250;2022-12-24T01:03:37;19.08;;;1.85;;
39772;SDS011;25451;51.960;6.250;2022-12-24T01:06:06;12.60;;;1.50;;
39772;SDS011;25451;51.960;6.250;2022-12-24T01:08:37;21.42;;;2.60;;
39772;SDS011;25451;51.960;6.250;2022-12-24T01:11:03;10.65;;;1.80;;
39772;SDS011;25451;51.960;6.250;2022-12-24T01:13:30;17.88;;;1.90;;
39772;SDS011;25451;51.960;6.250;2022-12-24T01:15:55;19.17;;;2.13;;
39772;SDS011;25451;51.960;6.250;2022-12-24T01:18:21;13.68;;;1.70;;
39772;SDS011;25451;51.960;6.250;2022-12-24T01:20:55;19.33;;;2.00;;
39772;SDS011;25451;51.960;6.250;2022-12-24T01:23:22;17.30;;;2.03;;
39772;SDS011;25451;51.960;6.250;2022-12-24T01:25:48;20.83;;;1.80;;
39772;SDS011;25451;51.960;6.250;2022-12-24T01:28:13;16.30;;;2.10;;
39772;SDS011;25451;51.960;6.250;2022-12-24T01:30:39;14.50;;;2.00;;
39772;SDS011;25451;51.960;6.250;2022-12-24T01:33:05;16.17;;;1.80;;
39772;SDS011;25451;51.960;6.250;2022-12-24T01:35:30;20.90;;;1.87;;
39772;SDS011;25451;51.960;6.250;2022-12-24T01:37:55;15.30;;;1.95;;
39772;SDS011;25451;51.960;6.250;2022-12-24T01:40:21;18.45;;;1.65;;
39772;SDS011;25451;51.960;6.250;2022-12-24T01:43:09;21.13;;;2.20;;
39772;SDS011;25451;51.960;6.250;2022-12-24T01:48:31;19.95;;;2.17;;
39772;SDS011;25451;51.960;6.250;2022-12-24T01:51:01;18.35;;;2.10;;
39772;SDS011;25451;51.960;6.250;2022-12-24T01:53:37;21.45;;;2.30;;
39772;SDS011;25451;51.960;6.250;2022-12-24T01:56:06;19.50;;;1.97;;
39772;SDS011;25451;51.960;6.250;2022-12-24T01:58:33;19.70;;;2.33;;
39772;SDS011;25451;51.960;6.250;2022-12-24T02:01:00;19.15;;;2.45;;
39772;SDS011;25451;51.960;6.250;2022-12-24T02:03:26;15.37;;;1.97;;
39772;SDS011;25451;51.960;6.250;2022-12-24T02:05:52;17.08;;;1.98;;
39772;SDS011;25451;51.960;6.250;2022-12-24T02:08:21;16.47;;;2.20;;
39772;SDS011;25451;51.960;6.250;2022-12-24T02:10:46;17.85;;;2.22;;
39772;SDS011;25451;51.960;6.250;2022-12-24T02:13:14;21.75;;;2.20;;
39772;SDS011;25451;51.960;6.250;2022-12-24T02:15:48;20.70;;;2.17;;
39772;SDS011;25451;51.960;6.250;2022-12-24T02:18:31;21.73;;;2.45;;
39772;SDS011;25451;51.960;6.250;2022-12-24T02:32:20;17.30;;;2.50;;
39772;SDS011;25451;51.960;6.250;2022-12-24T02:34:52;18.42;;;2.40;;
39772;SDS011;25451;51.960;6.250;2022-12-24T02:37:30;13.00;;;2.08;;
39772;SDS011;25451;51.960;6.250;2022-12-24T02:40:05;18.77;;;1.67;;
39772;SDS011;25451;51.960;6.250;2022-12-24T02:42:39;12.07;;;1.50;;
39772;SDS011;25451;51.960;6.250;2022-12-24T02:45:07;14.82;;;1.85;;
39772;SDS011;25451;51.960;6.250;2022-12-24T02:47:39;18.73;;;2.08;;
39772;SDS011;25451;51.960;6.250;2022-12-24T02:50:07;17.90;;;2.40;;
39772;SDS011;25451;51.960;6.250;2022-12-24T02:52:34;14.45;;;1.58;;
39772;SDS011;25451;51.960;6.250;2022-12-24T02:55:07;16.80;;;2.17;;
39772;SDS011;25451;51.960;6.250;2022-12-24T03:03:51;14.05;;;2.15;;
39772;SDS011;25451;51.960;6.250;2022-12-24T03:09:24;12.80;;;1.70;;
39772;SDS011;25451;51.960;6.250;2022-12-24T03:12:18;13.60;;;2.13;;
39772;SDS011;25451;51.960;6.250;2022-12-24T03:14:48;13.55;;;1.58;;
39772;SDS011;25451;51.960;6.250;2022-12-24T03:17:14;18.67;;;1.90;;
39772;SDS011;25451;51.960;6.250;2022-12-24T03:19:41;17.33;;;1.90;;
39772;SDS011;25451;51.960;6.250;2022-12-24T03:22:09;18.80;;;2.10;;
39772;SDS011;25451;51.960;6.250;2022-12-24T03:24:36;14.13;;;1.95;;
39772;SDS011;25451;51.960;6.250;2022-12-24T03:27:03;16.50;;;2.78;;
39772;SDS011;25451;51.960;6.250;2022-12-24T03:29:31;12.38;;;1.50;;
39772;SDS011;25451;51.960;6.250;2022-12-24T03:32:00;13.63;;;1.53;;
39772;SDS011;25451;51.960;6.250;2022-12-24T03:34:27;16.30;;;1.70;;
39772;SDS011;25451;51.960;6.250;2022-12-24T03:36:52;14.83;;;2.10;;
39772;SDS011;25451;51.960;6.250;2022-12-24T03:39:17;12.17;;;1.60;;
39772;SDS011;25451;51.960;6.250;2022-12-24T03:41:43;13.60;;;1.93;;
39772;SDS011;25451;51.960;6.250;2022-12-24T03:44:08;17.88;;;1.90;;
39772;SDS011;25451;51.960;6.250;2022-12-24T03:46:33;23.70;;;2.50;;
39772;SDS011;25451;51.960;6.250;2022-12-24T03:48:59;13.13;;;2.00;;
39772;SDS011;25451;51.960;6.250;2022-12-24T03:51:24;17.43;;;2.63;;
39772;SDS011;25451;51.960;6.250;2022-12-24T03:53:51;12.88;;;2.20;;
39772;SDS011;25451;51.960;6.250;2022-12-24T03:56:17;12.23;;;2.60;;
39772;SDS011;25451;51.960;6.250;2022-12-24T03:58:43;16.02;;;2.13;;
39772;SDS011;25451;51.960;6.250;2022-12-24T04:01:08;15.70;;;2.27;;
39772;SDS011;25451;51.960;6.250;2022-12-24T04:03:33;13.27;;;2.03;;
39772;SDS011;25451;51.960;6.250;2022-12-24T04:06:06;15.07;;;2.07;;
39772;SDS011;25451;51.960;6.250;2022-12-24T04:08:33;18.80;;;2.35;;
39772;SDS011;25451;51.960;6.250;2022-12-24T04:10:59;23.63;;;2.88;;
39772;SDS011;25451;51.960;6.250;2022-12-24T04:13:25;13.63;;;2.37;;
39772;SDS011;25451;51.960;6.250;2022-12-24T04:16:00;18.40;;;2.60;;
39772;SDS011;25451;51.960;6.250;2022-12-24T04:18:29;22.65;;;2.75;;
39772;SDS011;25451;51.960;6.250;2022-12-24T04:20:55;16.48;;;2.30;;
39772;SDS011;25451;51.960;6.250;2022-12-24T04:23:21;14.10;;;2.28;;
39772;SDS011;25451;51.960;6.250;2022-12-24T04:25:46;17.93;;;2.40;;
39772;SDS011;25451;51.960;6.250;2022-12-24T04:28:12;16.37;;;2.33;;
39772;SDS011;25451;51.960;6.250;2022-12-24T04:30:38;17.30;;;2.50;;
39772;SDS011;25451;51.960;6.250;2022-12-24T04:33:04;17.20;;;2.72;;
39772;SDS011;25451;51.960;6.250;2022-12-24T04:35:30;16.77;;;2.60;;
39772;SDS011;25451;51.960;6.250;2022-12-24T04:37:56;16.93;;;2.57;;
39772;SDS011;25451;51.960;6.250;2022-12-24T04:40:22;17.83;;;2.38;;
39772;SDS011;25451;51.960;6.250;2022-12-24T04:42:47;23.08;;;3.00;;
39772;SDS011;25451;51.960;6.250;2022-12-24T04:45:14;13.30;;;2.27;;
39772;SDS011;25451;51.960;6.250;2022-12-24T04:47:40;19.60;;;2.40;;
39772;SDS011;25451;51.960;6.250;2022-12-24T04:50:05;23.00;;;3.17;;
39772;SDS011;25451;51.960;6.250;2022-12-24T04:52:32;20.15;;;3.25;;
39772;SDS011;25451;51.960;6.250;2022-12-24T04:54:58;18.77;;;2.97;;
39772;SDS011;25451;51.960;6.250;2022-12-24T04:57:23;16.25;;;2.90;;
39772;SDS011;25451;51.960;6.250;2022-12-24T04:59:48;20.87;;;3.07;;
39772;SDS011;25451;51.960;6.250;2022-12-24T05:02:13;15.87;;;2.40;;
39772;SDS011;25451;51.960;6.250;2022-12-24T05:04:39;19.77;;;2.40;;
39772;SDS011;25451;51.960;6.250;2022-12-24T05:07:04;18.23;;;2.57;;
39772;SDS011;25451;51.960;6.250;2022-12-24T05:09:30;15.13;;;2.70;;
39772;SDS011;25451;51.960;6.250;2022-12-24T05:11:55;20.50;;;3.13;;
39772;SDS011;25451;51.960;6.250;2022-12-24T05:14:20;19.63;;;2.47;;
39772;SDS011;25451;51.960;6.250;2022-12-24T05:16:46;15.80;;;2.80;;
39772;SDS011;25451;51.960;6.250;2022-12-24T05:19:11;14.43;;;3.07;;
39772;SDS011;25451;51.960;6.250;2022-12-24T05:21:36;21.43;;;3.03;;
39772;SDS011;25451;51.960;6.250;2022-12-24T05:24:02;20.53;;;3.20;;
39772;SDS011;25451;51.960;6.250;2022-12-24T05:26:54;19.40;;;2.90;;
39772;SDS011;25451;51.960;6.250;2022-12-24T05:29:22;16.10;;;2.70;;
39772;SDS011;25451;51.960;6.250;2022-12-24T05:31:48;20.73;;;2.97;;
39772;SDS011;25451;51.960;6.250;2022-12-24T05:34:14;16.40;;;2.80;;
39772;SDS011;25451;51.960;6.250;2022-12-24T05:36:40;17.58;;;2.80;;
39772;SDS011;25451;51.960;6.250;2022-12-24T05:39:07;22.52;;;2.72;;
39772;SDS011;25451;51.960;6.250;2022-12-24T05:41:34;16.63;;;2.67;;
39772;SDS011;25451;51.960;6.250;2022-12-24T05:43:59;17.15;;;2.60;;
39772;SDS011;25451;51.960;6.250;2022-12-24T05:46:25;12.95;;;2.70;;
39772;SDS011;25451;51.960;6.250;2022-12-24T05:48:50;18.73;;;3.03;;
39772;SDS011;25451;51.960;6.250;2022-12-24T05:51:17;13.75;;;2.80;;
39772;SDS011;25451;51.960;6.250;2022-12-24T05:53:44;18.13;;;2.60;;
39772;SDS011;25451;51.960;6.250;2022-12-24T05:56:11;18.17;;;2.80;;
39772;SDS011;25451;51.960;6.250;2022-12-24T05:58:39;19.92;;;2.88;;
39772;SDS011;25451;51.960;6.250;2022-12-24T06:01:05;15.68;;;2.85;;
39772;SDS011;25451;51.960;6.250;2022-12-24T06:03:31;14.55;;;2.50;;
39772;SDS011;25451;51.960;6.250;2022-12-24T06:06:01;19.50;;;3.60;;
39772;SDS011;25451;51.960;6.250;2022-12-24T06:08:27;19.48;;;2.80;;
39772;SDS011;25451;51.960;6.250;2022-12-24T06:10:53;17.83;;;3.08;;
39772;SDS011;25451;51.960;6.250;2022-12-24T06:13:23;13.00;;;2.72;;
39772;SDS011;25451;51.960;6.250;2022-12-24T06:15:49;15.63;;;2.75;;
39772;SDS011;25451;51.960;6.250;2022-12-24T06:18:15;17.45;;;2.80;;
39772;SDS011;25451;51.960;6.250;2022-12-24T06:20:40;19.47;;;2.77;;
39772;SDS011;25451;51.960;6.250;2022-12-24T06:23:05;20.17;;;2.97;;
39772;SDS011;25451;51.960;6.250;2022-12-24T06:25:31;14.60;;;2.80;;
39772;SDS011;25451;51.960;6.250;2022-12-24T06:27:56;10.93;;;2.20;;
39772;SDS011;25451;51.960;6.250;2022-12-24T06:30:21;17.77;;;2.80;;
39772;SDS011;25451;51.960;6.250;2022-12-24T06:32:46;13.40;;;2.53;;
39772;SDS011;25451;51.960;6.250;2022-12-24T06:35:12;18.30;;;2.60;;
39772;SDS011;25451;51.960;6.250;2022-12-24T06:37:37;20.17;;;2.80;;
39772;SDS011;25451;51.960;6.250;2022-12-24T06:40:02;21.17;;;2.85;;
39772;SDS011;25451;51.960;6.250;2022-12-24T06:42:28;20.27;;;3.13;;
39772;SDS011;25451;51.960;6.250;2022-12-24T06:44:53;16.93;;;3.40;;
39772;SDS011;25451;51.960;6.250;2022-12-24T06:47:19;14.37;;;3.10;;
39772;SDS011;25451;51.960;6.250;2022-12-24T06:49:44;14.10;;;2.20;;
39772;SDS011;25451;51.960;6.250;2022-12-24T06:52:09;21.65;;;2.90;;
39772;SDS011;25451;51.960;6.250;2022-12-24T06:54:35;25.17;;;3.03;;
39772;SDS011;25451;51.960;6.250;2022-12-24T06:57:00;17.13;;;2.87;;
39772;SDS011;25451;51.960;6.250;2022-12-24T06:59:25;24.93;;;3.30;;
39772;SDS011;25451;51.960;6.250;2022-12-24T07:01:51;25.40;;;3.83;;
39772;SDS011;25451;51.960;6.250;2022-12-24T07:04:16;17.30;;;3.03;;
39772;SDS011;25451;51.960;6.250;2022-12-24T07:06:41;19.33;;;3.03;;
39772;SDS011;25451;51.960;6.250;2022-12-24T07:09:07;16.20;;;3.07;;
39772;SDS011;25451;51.960;6.250;2022-12-24T07:11:37;17.02;;;3.05;;
39772;SDS011;25451;51.960;6.250;2022-12-24T07:14:02;19.70;;;3.17;;
39772;SDS011;25451;51.960;6.250;2022-12-24T07:16:27;14.47;;;2.53;;
39772;SDS011;25451;51.960;6.250;2022-12-24T07:18:53;15.70;;;2.60;;
39772;SDS011;25451;51.960;6.250;2022-12-24T07:21:20;21.02;;;3.00;;
39772;SDS011;25451;51.960;6.250;2022-12-24T07:23:46;17.47;;;3.33;;
39772;SDS011;25451;51.960;6.250;2022-12-24T07:26:11;17.40;;;2.85;;
39772;SDS011;25451;51.960;6.250;2022-12-24T07:28:36;19.77;;;3.10;;
39772;SDS011;25451;51.960;6.250;2022-12-24T07:31:02;15.57;;;3.57;;
39772;SDS011;25451;51.960;6.250;2022-12-24T07:33:27;13.40;;;2.80;;
39772;SDS011;25451;51.960;6.250;2022-12-24T07:36:02;22.83;;;3.53;;
39772;SDS011;25451;51.960;6.250;2022-12-24T07:38:30;13.55;;;2.72;;
39772;SDS011;25451;51.960;6.250;2022-12-24T07:40:57;16.90;;;3.72;;
39772;SDS011;25451;51.960;6.250;2022-12-24T07:43:23;26.87;;;3.73;;
39772;SDS011;25451;51.960;6.250;2022-12-24T07:45:49;17.27;;;3.42;;
39772;SDS011;25451;51.960;6.250;2022-12-24T07:48:14;17.77;;;3.43;;
39772;SDS011;25451;51.960;6.250;2022-12-24T07:50:40;19.02;;;3.17;;
39772;SDS011;25451;51.960;6.250;2022-12-24T07:53:06;18.13;;;3.45;;
39772;SDS011;25451;51.960;6.250;2022-12-24T07:55:31;21.90;;;3.23;;
39772;SDS011;25451;51.960;6.250;2022-12-24T07:57:56;19.97;;;3.50;;
39772;SDS011;25451;51.960;6.250;2022-12-24T08:00:21;22.05;;;4.15;;
39772;SDS011;25451;51.960;6.250;2022-12-24T08:02:47;13.07;;;3.38;;
39772;SDS011;25451;51.960;6.250;2022-12-24T08:05:12;16.50;;;2.97;;
39772;SDS011;25451;51.960;6.250;2022-12-24T08:07:37;19.53;;;3.37;;
39772;SDS011;25451;51.960;6.250;2022-12-24T08:10:03;14.13;;;3.03;;
39772;SDS011;25451;51.960;6.250;2022-12-24T08:12:29;23.42;;;3.47;;
39772;SDS011;25451;51.960;6.250;2022-12-24T08:14:54;18.70;;;3.60;;
39772;SDS011;25451;51.960;6.250;2022-12-24T08:17:19;16.77;;;2.83;;
39772;SDS011;25451;51.960;6.250;2022-12-24T08:19:45;19.80;;;3.03;;
39772;SDS011;25451;51.960;6.250;2022-12-24T08:22:10;15.80;;;3.07;;
39772;SDS011;25451;51.960;6.250;2022-12-24T08:24:35;16.57;;;3.60;;
39772;SDS011;25451;51.960;6.250;2022-12-24T08:27:01;20.45;;;3.67;;
39772;SDS011;25451;51.960;6.250;2022-12-24T08:29:27;16.67;;;3.30;;
39772;SDS011;25451;51.960;6.250;2022-12-24T08:31:52;21.00;;;3.37;;
39772;SDS011;25451;51.960;6.250;2022-12-24T08:34:17;23.47;;;3.50;;
39772;SDS011;25451;51.960;6.250;2022-12-24T08:36:43;17.37;;;3.33;;
39772;SDS011;25451;51.960;6.250;2022-12-24T08:39:08;20.38;;;3.05;;
39772;SDS011;25451;51.960;6.250;2022-12-24T08:41:34;16.50;;;3.10;;
39772;SDS011;25451;51.960;6.250;2022-12-24T08:43:59;22.25;;;3.60;;
39772;SDS011;25451;51.960;6.250;2022-12-24T08:46:25;17.20;;;3.00;;
39772;SDS011;25451;51.960;6.250;2022-12-24T08:48:51;15.77;;;2.90;;
39772;SDS011;25451;51.960;6.250;2022-12-24T08:51:16;17.27;;;2.73;;
39772;SDS011;25451;51.960;6.250;2022-12-24T08:53:43;17.42;;;2.95;;
39772;SDS011;25451;51.960;6.250;2022-12-24T08:56:09;15.45;;;2.63;;
39772;SDS011;25451;51.960;6.250;2022-12-24T08:58:35;19.42;;;2.97;;
39772;SDS011;25451;51.960;6.250;2022-12-24T09:01:08;17.57;;;3.40;;
39772;SDS011;25451;51.960;6.250;2022-12-24T09:03:35;18.52;;;3.08;;
39772;SDS011;25451;51.960;6.250;2022-12-24T09:06:04;13.17;;;2.60;;
39772;SDS011;25451;51.960;6.250;2022-12-24T09:08:30;24.17;;;3.50;;
39772;SDS011;25451;51.960;6.250;2022-12-24T09:11:01;13.63;;;2.85;;
39772;SDS011;25451;51.960;6.250;2022-12-24T09:13:35;17.23;;;3.17;;
39772;SDS011;25451;51.960;6.250;2022-12-24T09:16:01;21.27;;;2.90;;
39772;SDS011;25451;51.960;6.250;2022-12-24T09:18:26;21.37;;;3.37;;
39772;SDS011;25451;51.960;6.250;2022-12-24T09:20:57;22.38;;;3.30;;
39772;SDS011;25451;51.960;6.250;2022-12-24T09:23:26;23.00;;;3.43;;
39772;SDS011;25451;51.960;6.250;2022-12-24T09:25:52;20.42;;;3.10;;
39772;SDS011;25451;51.960;6.250;2022-12-24T09:28:17;18.00;;;3.37;;
39772;SDS011;25451;51.960;6.250;2022-12-24T09:30:42;24.27;;;4.23;;
39772;SDS011;25451;51.960;6.250;2022-12-24T09:33:08;17.60;;;3.67;;
39772;SDS011;25451;51.960;6.250;2022-12-24T09:35:33;18.60;;;3.33;;
39772;SDS011;25451;51.960;6.250;2022-12-24T09:38:02;16.88;;;3.63;;
39772;SDS011;25451;51.960;6.250;2022-12-24T09:40:31;22.10;;;4.07;;
39772;SDS011;25451;51.960;6.250;2022-12-24T09:43:02;17.85;;;3.50;;
39772;SDS011;25451;51.960;6.250;2022-12-24T09:45:32;19.50;;;3.30;;
39772;SDS011;25451;51.960;6.250;2022-12-24T09:48:12;20.85;;;3.40;;
39772;SDS011;25451;51.960;6.250;2022-12-24T09:53:19;16.73;;;4.00;;
39772;SDS011;25451;51.960;6.250;2022-12-24T09:55:53;25.48;;;4.20;;
39772;SDS011;25451;51.960;6.250;2022-12-24T09:58:36;21.70;;;3.57;;
39772;SDS011;25451;51.960;6.250;2022-12-24T10:01:05;26.48;;;3.78;;
39772;SDS011;25451;51.960;6.250;2022-12-24T10:03:30;10.25;;;3.40;;
39772;SDS011;25451;51.960;6.250;2022-12-24T10:06:02;20.45;;;3.72;;
39772;SDS011;25451;51.960;6.250;2022-12-24T10:08:52;22.65;;;3.80;;
39772;SDS011;25451;51.960;6.250;2022-12-24T10:14:35;19.80;;;3.17;;
39772;SDS011;25451;51.960;6.250;2022-12-24T10:20:16;22.27;;;3.75;;
39772;SDS011;25451;51.960;6.250;2022-12-24T10:28:11;22.37;;;3.67;;
39772;SDS011;25451;51.960;6.250;2022-12-24T10:30:40;23.75;;;3.80;;
39772;SDS011;25451;51.960;6.250;2022-12-24T10:33:14;21.38;;;3.95;;
39772;SDS011;25451;51.960;6.250;2022-12-24T10:35:44;20.20;;;3.55;;
39772;SDS011;25451;51.960;6.250;2022-12-24T10:38:14;20.30;;;3.88;;
39772;SDS011;25451;51.960;6.250;2022-12-24T10:40:41;14.00;;;3.03;;
39772;SDS011;25451;51.960;6.250;2022-12-24T10:43:18;16.65;;;3.35;;
39772;SDS011;25451;51.960;6.250;2022-12-24T10:45:47;16.83;;;3.17;;
39772;SDS011;25451;51.960;6.250;2022-12-24T10:48:20;22.77;;;3.75;;
39772;SDS011;25451;51.960;6.250;2022-12-24T10:50:54;19.63;;;3.42;;
39772;SDS011;25451;51.960;6.250;2022-12-24T10:53:27;14.82;;;2.90;;
39772;SDS011;25451;51.960;6.250;2022-12-24T10:56:02;18.70;;;3.38;;
39772;SDS011;25451;51.960;6.250;2022-12-24T10:58:30;16.40;;;3.20;;
39772;SDS011;25451;51.960;6.250;2022-12-24T11:00:55;14.85;;;2.88;;
39772;SDS011;25451;51.960;6.250;2022-12-24T11:03:22;19.17;;;3.27;;
39772;SDS011;25451;51.960;6.250;2022-12-24T11:08:28;17.70;;;3.17;;
39772;SDS011;25451;51.960;6.250;2022-12-24T11:10:57;20.17;;;3.10;;
39772;SDS011;25451;51.960;6.250;2022-12-24T11:16:06;13.43;;;3.20;;
39772;SDS011;25451;51.960;6.250;2022-12-24T11:18:43;22.90;;;3.70;;
39772;SDS011;25451;51.960;6.250;2022-12-24T11:23:51;20.35;;;3.70;;
39772;SDS011;25451;51.960;6.250;2022-12-24T11:26:23;21.23;;;3.05;;
39772;SDS011;25451;51.960;6.250;2022-12-24T11:31:48;18.35;;;2.78;;
39772;SDS011;25451;51.960;6.250;2022-12-24T11:34:26;18.77;;;3.03;;
39772;SDS011;25451;51.960;6.250;2022-12-24T11:36:55;21.83;;;2.92;;
39772;SDS011;25451;51.960;6.250;2022-12-24T11:39:37;20.40;;;3.08;;
39772;SDS011;25451;51.960;6.250;2022-12-24T11:42:04;15.77;;;2.70;;
39772;SDS011;25451;51.960;6.250;2022-12-24T11:44:29;17.43;;;3.80;;
39772;SDS011;25451;51.960;6.250;2022-12-24T11:46:55;14.60;;;2.85;;
39772;SDS011;25451;51.960;6.250;2022-12-24T11:49:24;16.08;;;2.85;;
39772;SDS011;25451;51.960;6.250;2022-12-24T11:54:42;20.45;;;3.20;;
39772;SDS011;25451;51.960;6.250;2022-12-24T11:57:12;18.75;;;3.03;;
39772;SDS011;25451;51.960;6.250;2022-12-24T11:59:44;22.27;;;3.30;;
39772;SDS011;25451;51.960;6.250;2022-12-24T12:02:16;15.45;;;2.58;;
39772;SDS011;25451;51.960;6.250;2022-12-24T12:04:58;22.67;;;3.15;;
39772;SDS011;25451;51.960;6.250;2022-12-24T12:07:33;17.05;;;2.53;;
39772;SDS011;25451;51.960;6.250;2022-12-24T12:10:10;16.58;;;2.50;;
39772;SDS011;25451;51.960;6.250;2022-12-24T12:12:55;13.90;;;2.63;;
39772;SDS011;25451;51.960;6.250;2022-12-24T12:15:27;15.55;;;2.42;;
39772;SDS011;25451;51.960;6.250;2022-12-24T12:18:00;15.57;;;2.50;;
39772;SDS011;25451;51.960;6.250;2022-12-24T12:20:33;12.38;;;2.65;;
39772;SDS011;25451;51.960;6.250;2022-12-24T12:26:06;13.40;;;2.65;;
39772;SDS011;25451;51.960;6.250;2022-12-24T12:31:31;19.80;;;2.80;;
39772;SDS011;25451;51.960;6.250;2022-12-24T12:34:15;17.27;;;2.72;;
39772;SDS011;25451;51.960;6.250;2022-12-24T12:36:48;20.90;;;3.10;;
39772;SDS011;25451;51.960;6.250;2022-12-24T12:39:18;18.27;;;2.67;;
39772;SDS011;25451;51.960;6.250;2022-12-24T12:50:56;18.00;;;2.78;;
39772;SDS011;25451;51.960;6.250;2022-12-24T12:58:38;15.35;;;2.38;;
39772;SDS011;25451;51.960;6.250;2022-12-24T13:01:32;15.43;;;1.90;;
39772;SDS011;25451;51.960;6.250;2022-12-24T13:09:19;16.13;;;2.60;;
39772;SDS011;25451;51.960;6.250;2022-12-24T13:20:20;11.02;;;1.95;;
39772;SDS011;25451;51.960;6.250;2022-12-24T13:23:10;13.18;;;1.88;;
39772;SDS011;25451;51.960;6.250;2022-12-24T13:25:42;14.27;;;2.30;;
39772;SDS011;25451;51.960;6.250;2022-12-24T13:28:31;13.90;;;2.13;;
39772;SDS011;25451;51.960;6.250;2022-12-24T13:36:06;14.13;;;2.20;;
39772;SDS011;25451;51.960;6.250;2022-12-24T13:38:42;13.75;;;2.50;;
39772;SDS011;25451;51.960;6.250;2022-12-24T13:44:21;15.57;;;2.03;;
39772;SDS011;25451;51.960;6.250;2022-12-24T13:49:35;10.75;;;1.85;;
39772;SDS011;25451;51.960;6.250;2022-12-24T13:54:35;14.38;;;2.20;;
39772;SDS011;25451;51.960;6.250;2022-12-24T13:57:03;16.10;;;2.33;;
39772;SDS011;25451;51.960;6.250;2022-12-24T13:59:46;10.52;;;1.85;;
39772;SDS011;25451;51.960;6.250;2022-12-24T14:02:18;10.70;;;2.20;;
39772;SDS011;25451;51.960;6.250;2022-12-24T14:04:46;17.98;;;2.50;;
39772;SDS011;25451;51.960;6.250;2022-12-24T14:07:15;11.55;;;2.00;;
39772;SDS011;25451;51.960;6.250;2022-12-24T14:09:47;9.77;;;2.17;;
39772;SDS011;25451;51.960;6.250;2022-12-24T14:12:27;14.45;;;2.30;;
39772;SDS011;25451;51.960;6.250;2022-12-24T14:14:56;9.27;;;2.08;;
39772;SDS011;25451;51.960;6.250;2022-12-24T14:17:22;11.40;;;2.47;;
39772;SDS011;25451;51.960;6.250;2022-12-24T14:19:56;14.60;;;2.80;;
39772;SDS011;25451;51.960;6.250;2022-12-24T14:25:00;13.43;;;2.40;;
39772;SDS011;25451;51.960;6.250;2022-12-24T14:33:00;13.20;;;2.40;;
39772;SDS011;25451;51.960;6.250;2022-12-24T14:37:56;16.30;;;2.60;;
39772;SDS011;25451;51.960;6.250;2022-12-24T14:40:28;14.05;;;2.22;;
39772;SDS011;25451;51.960;6.250;2022-12-24T14:45:50;15.50;;;2.33;;
39772;SDS011;25451;51.960;6.250;2022-12-24T14:51:03;12.02;;;2.05;;
39772;SDS011;25451;51.960;6.250;2022-12-24T14:53:52;9.98;;;2.13;;
39772;SDS011;25451;51.960;6.250;2022-12-24T14:56:31;18.88;;;2.90;;
39772;SDS011;25451;51.960;6.250;2022-12-24T14:58:57;10.87;;;2.30;;
39772;SDS011;25451;51.960;6.250;2022-12-24T15:01:38;10.88;;;2.67;;
39772;SDS011;25451;51.960;6.250;2022-12-24T15:06:36;12.98;;;2.40;;
39772;SDS011;25451;51.960;6.250;2022-12-24T15:09:04;16.23;;;2.75;;
39772;SDS011;25451;51.960;6.250;2022-12-24T15:11:34;13.23;;;2.20;;
39772;SDS011;25451;51.960;6.250;2022-12-24T15:14:00;10.82;;;2.10;;
39772;SDS011;25451;51.960;6.250;2022-12-24T15:16:30;15.33;;;2.33;;
39772;SDS011;25451;51.960;6.250;2022-12-24T15:22:31;7.57;;;1.60;;
39772;SDS011;25451;51.960;6.250;2022-12-24T15:24:58;11.63;;;2.30;;
39772;SDS011;25451;51.960;6.250;2022-12-24T15:30:17;15.90;;;2.22;;
39772;SDS011;25451;51.960;6.250;2022-12-24T15:32:53;11.07;;;2.30;;
39772;SDS011;25451;51.960;6.250;2022-12-24T15:38:37;6.35;;;1.70;;
39772;SDS011;25451;51.960;6.250;2022-12-24T15:41:06;12.50;;;2.42;;
39772;SDS011;25451;51.960;6.250;2022-12-24T15:43:47;11.25;;;2.45;;
39772;SDS011;25451;51.960;6.250;2022-12-24T15:46:20;14.50;;;2.80;;
39772;SDS011;25451;51.960;6.250;2022-12-24T15:48:48;8.02;;;1.75;;
39772;SDS011;25451;51.960;6.250;2022-12-24T15:51:48;14.68;;;2.53;;
39772;SDS011;25451;51.960;6.250;2022-12-24T15:54:09;11.23;;;1.98;;
39772;SDS011;25451;51.960;6.250;2022-12-24T15:56:40;8.80;;;2.33;;
39772;SDS011;25451;51.960;6.250;2022-12-24T15:59:31;15.80;;;3.00;;
39772;SDS011;25451;51.960;6.250;2022-12-24T16:02:21;12.55;;;3.45;;
39772;SDS011;25451;51.960;6.250;2022-12-24T16:04:49;14.32;;;4.43;;
39772;SDS011;25451;51.960;6.250;2022-12-24T16:07:27;15.13;;;4.13;;
39772;SDS011;25451;51.960;6.250;2022-12-24T16:10:22;16.33;;;4.05;;
39772;SDS011;25451;51.960;6.250;2022-12-24T16:12:48;21.15;;;3.80;;
39772;SDS011;25451;51.960;6.250;2022-12-24T16:15:14;14.17;;;3.20;;
39772;SDS011;25451;51.960;6.250;2022-12-24T16:17:39;19.67;;;3.33;;
39772;SDS011;25451;51.960;6.250;2022-12-24T16:20:06;13.40;;;3.90;;
39772;SDS011;25451;51.960;6.250;2022-12-24T16:22:40;17.13;;;4.50;;
39772;SDS011;25451;51.960;6.250;2022-12-24T16:25:26;20.80;;;5.35;;
39772;SDS011;25451;51.960;6.250;2022-12-24T16:27:55;21.77;;;5.70;;
39772;SDS011;25451;51.960;6.250;2022-12-24T16:30:20;21.33;;;6.17;;
39772;SDS011;25451;51.960;6.250;2022-12-24T16:32:47;22.80;;;5.70;;
39772;SDS011;25451;51.960;6.250;2022-12-24T16:35:24;20.40;;;6.20;;
39772;SDS011;25451;51.960;6.250;2022-12-24T16:37:52;11.80;;;4.72;;
39772;SDS011;25451;51.960;6.250;2022-12-24T16:40:18;17.52;;;4.63;;
39772;SDS011;25451;51.960;6.250;2022-12-24T16:42:43;12.18;;;3.83;;
39772;SDS011;25451;51.960;6.250;2022-12-24T16:45:27;14.68;;;3.92;;
39772;SDS011;25451;51.960;6.250;2022-12-24T16:47:58;13.63;;;3.83;;
39772;SDS011;25451;51.960;6.250;2022-12-24T16:50:24;10.32;;;3.53;;
39772;SDS011;25451;51.960;6.250;2022-12-24T16:52:49;12.05;;;3.33;;